createdAt,value
2023-03-27T00:00:07.882Z,26.06
2023-03-27T00:01:07.986Z,25.98
2023-03-27T00:02:07.910Z,25.95
2023-03-27T00:03:08.252Z,25.86
2023-03-27T00:04:07.965Z,25.78
2023-03-27T00:05:07.902Z,25.74
2023-03-27T00:06:07.833Z,25.77
2023-03-27T00:07:07.823Z,25.71
2023-03-27T00:08:07.812Z,25.71
2023-03-27T00:09:07.809Z,25.68
2023-03-27T00:10:07.749Z,25.66
2023-03-27T00:11:07.752Z,25.67
2023-03-27T00:12:07.774Z,25.71
2023-03-27T00:13:07.741Z,25.73
2023-03-27T00:14:07.741Z,25.73
2023-03-27T00:15:07.772Z,25.73
2023-03-27T00:16:07.811Z,25.71
2023-03-27T00:17:07.756Z,25.68
2023-03-27T00:18:08.716Z,25.63
2023-03-27T00:19:07.674Z,25.59
2023-03-27T00:20:07.703Z,25.58
2023-03-27T00:21:07.629Z,25.52
2023-03-27T00:22:07.618Z,25.46
2023-03-27T00:23:07.637Z,25.34
2023-03-27T00:24:07.706Z,25.30
2023-03-27T00:25:07.614Z,25.29
2023-03-27T00:26:07.656Z,25.29
2023-03-27T00:27:07.624Z,25.30
2023-03-27T00:28:07.565Z,25.39
2023-03-27T00:29:07.566Z,25.41
2023-03-27T00:30:07.648Z,25.44
2023-03-27T00:31:07.623Z,25.43
2023-03-27T00:32:07.556Z,25.41
2023-03-27T00:33:07.626Z,25.44
2023-03-27T00:34:07.591Z,25.43
2023-03-27T00:35:07.505Z,25.33
2023-03-27T00:36:08.331Z,25.25
2023-03-27T00:37:07.437Z,25.14
2023-03-27T00:38:07.438Z,24.93
2023-03-27T00:39:07.539Z,24.78
2023-03-27T00:40:07.436Z,24.65
2023-03-27T00:41:07.504Z,24.61
2023-03-27T00:42:07.463Z,24.56
2023-03-27T00:43:07.417Z,24.59
2023-03-27T00:44:07.420Z,24.56
2023-03-27T00:45:07.367Z,24.53
2023-03-27T00:46:07.430Z,24.48
2023-03-27T00:47:07.391Z,24.46
2023-03-27T00:48:07.404Z,24.43
2023-03-27T00:49:07.303Z,24.41
2023-03-27T00:50:07.296Z,24.38
2023-03-27T00:51:07.310Z,24.37
2023-03-27T00:52:07.325Z,24.37
2023-03-27T00:53:07.276Z,24.32
2023-03-27T00:54:07.219Z,24.31
2023-03-27T00:55:07.247Z,24.31
2023-03-27T00:56:07.232Z,24.32
2023-03-27T00:57:07.332Z,24.34
2023-03-27T00:58:07.266Z,24.34
2023-03-27T00:59:07.237Z,24.34
2023-03-27T01:00:09.361Z,24.37
2023-03-27T01:01:07.314Z,24.43
2023-03-27T01:02:07.190Z,24.44
2023-03-27T01:03:07.655Z,24.46
2023-03-27T01:04:07.157Z,24.48
2023-03-27T01:05:07.159Z,24.51
2023-03-27T01:06:07.092Z,24.51
2023-03-27T01:07:07.103Z,24.50
2023-03-27T01:08:07.117Z,24.47
2023-03-27T01:09:07.082Z,24.44
2023-03-27T01:10:07.126Z,24.41
2023-03-27T01:11:07.177Z,24.37
2023-03-27T01:12:07.039Z,24.34
2023-03-27T01:13:07.034Z,24.32
2023-03-27T01:14:07.044Z,24.34
2023-03-27T01:15:07.010Z,24.37
2023-03-27T01:16:07.209Z,24.36
2023-03-27T01:17:07.027Z,24.34
2023-03-27T01:18:07.014Z,24.37
2023-03-27T01:19:06.989Z,24.38
2023-03-27T01:20:06.965Z,24.41
2023-03-27T01:21:06.953Z,24.43
2023-03-27T01:22:06.958Z,24.43
2023-03-27T01:23:06.974Z,24.40
2023-03-27T01:24:06.923Z,24.40
2023-03-27T01:25:07.020Z,24.40
2023-03-27T01:26:06.916Z,24.40
2023-03-27T01:27:06.924Z,24.41
2023-03-27T01:28:06.935Z,24.40
2023-03-27T01:29:06.905Z,24.34
2023-03-27T01:30:06.846Z,24.29
2023-03-27T01:31:06.933Z,24.26
2023-03-27T01:32:06.822Z,24.28
2023-03-27T01:33:06.914Z,24.26
2023-03-27T01:34:06.838Z,24.28
2023-03-27T01:35:06.846Z,24.26
2023-03-27T01:36:06.854Z,24.28
2023-03-27T01:37:07.209Z,24.25
2023-03-27T01:38:06.811Z,24.22
2023-03-27T01:39:06.802Z,24.24
2023-03-27T01:40:06.818Z,24.19
2023-03-27T01:41:06.782Z,24.18
2023-03-27T01:42:06.791Z,24.14
2023-03-27T01:43:06.801Z,24.16
2023-03-27T01:44:06.746Z,24.14
2023-03-27T01:45:06.718Z,24.10
2023-03-27T01:46:06.758Z,24.07
2023-03-27T01:47:06.727Z,24.06
2023-03-27T01:48:06.711Z,24.04
2023-03-27T01:49:06.676Z,24.03
2023-03-27T01:50:06.677Z,24.01
2023-03-27T01:51:06.725Z,24.01
2023-03-27T01:52:06.692Z,23.99
2023-03-27T01:53:06.658Z,23.96
2023-03-27T01:54:06.676Z,23.96
2023-03-27T01:55:06.649Z,24.00
2023-03-27T01:56:06.593Z,24.03
2023-03-27T01:57:06.642Z,24.03
2023-03-27T01:58:06.703Z,24.04
2023-03-27T01:59:06.602Z,24.04
2023-03-27T02:00:18.133Z,24.06
2023-03-27T02:01:06.850Z,24.04
2023-03-27T02:02:06.556Z,23.99
2023-03-27T02:03:06.528Z,23.96
2023-03-27T02:04:06.537Z,23.99
2023-03-27T02:05:06.687Z,24.01
2023-03-27T02:06:06.525Z,24.06
2023-03-27T02:07:06.529Z,24.11
2023-03-27T02:08:06.462Z,24.19
2023-03-27T02:09:06.475Z,24.24
2023-03-27T02:10:06.475Z,24.26
2023-03-27T02:11:06.452Z,24.26
2023-03-27T02:12:06.419Z,24.29
2023-03-27T02:13:06.463Z,24.32
2023-03-27T02:14:06.405Z,24.37
2023-03-27T02:15:22.475Z,24.37
2023-03-27T02:16:06.400Z,24.34
2023-03-27T02:17:06.425Z,24.32
2023-03-27T02:18:06.411Z,24.26
2023-03-27T02:19:06.394Z,24.22
2023-03-27T02:20:06.372Z,24.19
2023-03-27T02:21:07.136Z,24.19
2023-03-27T02:22:06.379Z,24.14
2023-03-27T02:23:06.348Z,24.10
2023-03-27T02:24:06.415Z,24.09
2023-03-27T02:25:06.409Z,24.11
2023-03-27T02:26:06.349Z,24.14
2023-03-27T02:27:06.253Z,24.16
2023-03-27T02:28:06.260Z,24.16
2023-03-27T02:29:06.360Z,24.16
2023-03-27T02:30:06.272Z,24.14
2023-03-27T02:31:32.750Z,24.14
2023-03-27T02:32:06.319Z,24.13
2023-03-27T02:33:06.193Z,24.11
2023-03-27T02:34:06.208Z,24.11
2023-03-27T02:35:06.197Z,24.09
2023-03-27T02:36:06.268Z,24.11
2023-03-27T02:37:06.720Z,24.11
2023-03-27T02:38:06.214Z,24.14
2023-03-27T02:39:06.151Z,24.16
2023-03-27T02:40:06.127Z,24.18
2023-03-27T02:41:06.159Z,24.18
2023-03-27T02:42:06.769Z,24.24
2023-03-27T02:43:06.166Z,24.22
2023-03-27T02:44:06.120Z,24.21
2023-03-27T02:45:06.090Z,24.18
2023-03-27T02:46:06.100Z,24.14
2023-03-27T02:47:06.074Z,24.14
2023-03-27T02:48:06.268Z,24.13
2023-03-27T02:49:06.112Z,24.14
2023-03-27T02:50:06.090Z,24.19
2023-03-27T02:51:06.021Z,24.19
2023-03-27T02:52:06.033Z,24.14
2023-03-27T02:53:06.023Z,24.14
2023-03-27T02:54:06.022Z,24.10
2023-03-27T02:55:06.060Z,24.07
2023-03-27T02:56:06.058Z,24.04
2023-03-27T02:57:06.019Z,23.99
2023-03-27T02:58:05.975Z,23.92
2023-03-27T02:59:05.967Z,23.94
2023-03-27T03:00:05.987Z,23.95
2023-03-27T03:01:05.987Z,23.99
2023-03-27T03:02:06.119Z,24.00
2023-03-27T03:03:06.104Z,23.99
2023-03-27T03:04:05.909Z,24.00
2023-03-27T03:05:05.922Z,24.03
2023-03-27T03:06:06.130Z,24.07
2023-03-27T03:07:05.905Z,24.11
2023-03-27T03:08:05.860Z,24.16
2023-03-27T03:09:05.820Z,24.22
2023-03-27T03:10:06.221Z,24.28
2023-03-27T03:11:05.866Z,24.32
2023-03-27T03:12:05.844Z,24.34
2023-03-27T03:13:05.841Z,24.34
2023-03-27T03:14:05.787Z,24.34
2023-03-27T03:15:05.793Z,24.37
2023-03-27T03:16:05.793Z,24.37
2023-03-27T03:17:05.784Z,24.36
2023-03-27T03:18:05.844Z,24.38
2023-03-27T03:19:06.622Z,24.37
2023-03-27T03:20:05.758Z,24.38
2023-03-27T03:21:05.762Z,24.40
2023-03-27T03:22:05.727Z,24.36
2023-03-27T03:23:05.692Z,24.31
2023-03-27T03:24:05.734Z,24.24
2023-03-27T03:25:05.712Z,24.19
2023-03-27T03:26:05.634Z,24.14
2023-03-27T03:27:05.621Z,24.14
2023-03-27T03:28:05.644Z,24.14
2023-03-27T03:29:05.650Z,24.16
2023-03-27T03:30:05.639Z,24.14
2023-03-27T03:31:05.634Z,24.10
2023-03-27T03:32:05.598Z,24.06
2023-03-27T03:33:05.586Z,24.06
2023-03-27T03:34:05.565Z,24.04
2023-03-27T03:35:05.492Z,24.01
2023-03-27T03:36:05.560Z,24.04
2023-03-27T03:37:05.489Z,24.03
2023-03-27T03:38:05.532Z,24.03
2023-03-27T03:39:05.508Z,24.01
2023-03-27T03:40:05.460Z,24.03
2023-03-27T03:41:05.447Z,24.00
2023-03-27T03:42:05.426Z,23.96
2023-03-27T03:43:05.421Z,23.99
2023-03-27T03:44:05.436Z,24.00
2023-03-27T03:45:05.437Z,24.00
2023-03-27T03:46:05.443Z,23.94
2023-03-27T03:47:05.348Z,23.96
2023-03-27T03:48:05.401Z,23.99
2023-03-27T03:49:05.353Z,23.99
2023-03-27T03:50:05.366Z,24.00
2023-03-27T03:51:05.300Z,24.00
2023-03-27T03:52:05.307Z,23.99
2023-03-27T03:53:05.287Z,23.99
2023-03-27T03:54:05.299Z,24.00
2023-03-27T03:55:05.307Z,23.99
2023-03-27T03:56:05.310Z,23.96
2023-03-27T03:57:05.337Z,23.95
2023-03-27T03:58:05.236Z,23.92
2023-03-27T03:59:05.290Z,23.94
2023-03-27T04:00:05.242Z,23.94
2023-03-27T04:01:05.310Z,23.95
2023-03-27T04:02:05.283Z,23.96
2023-03-27T04:03:05.256Z,23.96
2023-03-27T04:04:05.206Z,23.96
2023-03-27T04:05:08.796Z,24.01
2023-03-27T04:06:05.384Z,24.04
2023-03-27T04:07:05.184Z,24.06
2023-03-27T04:08:05.194Z,24.06
2023-03-27T04:09:05.128Z,24.07
2023-03-27T04:10:05.120Z,24.10
2023-03-27T04:11:05.110Z,24.13
2023-03-27T04:12:05.118Z,24.14
2023-03-27T04:13:05.153Z,24.10
2023-03-27T04:14:05.187Z,24.07
2023-03-27T04:15:05.068Z,24.06
2023-03-27T04:16:05.103Z,24.06
2023-03-27T04:17:05.043Z,24.07
2023-03-27T04:18:05.166Z,24.10
2023-03-27T04:19:05.065Z,24.10
2023-03-27T04:20:04.991Z,24.10
2023-03-27T04:21:05.012Z,24.10
2023-03-27T04:22:04.977Z,24.11
2023-03-27T04:23:04.983Z,24.11
2023-03-27T04:24:05.022Z,24.11
2023-03-27T04:25:05.005Z,24.09
2023-03-27T04:26:04.955Z,24.07
2023-03-27T04:27:04.943Z,23.99
2023-03-27T04:28:04.952Z,23.91
2023-03-27T04:29:04.954Z,23.79
2023-03-27T04:30:04.937Z,23.71
2023-03-27T04:31:05.661Z,23.67
2023-03-27T04:32:04.980Z,23.62
2023-03-27T04:33:06.335Z,23.59
2023-03-27T04:34:04.904Z,23.59
2023-03-27T04:35:04.898Z,23.55
2023-03-27T04:36:06.913Z,23.52
2023-03-27T04:37:04.910Z,23.52
2023-03-27T04:38:04.917Z,23.49
2023-03-27T04:39:04.823Z,23.49
2023-03-27T04:40:04.831Z,23.49
2023-03-27T04:41:05.344Z,23.52
2023-03-27T04:42:04.856Z,23.52
2023-03-27T04:43:04.830Z,23.55
2023-03-27T04:44:04.762Z,23.54
2023-03-27T04:45:04.767Z,23.48
2023-03-27T04:46:04.766Z,23.45
2023-03-27T04:47:05.842Z,23.44
2023-03-27T04:48:04.822Z,23.47
2023-03-27T04:49:04.781Z,23.48
2023-03-27T04:50:04.770Z,23.48
2023-03-27T04:51:04.805Z,23.47
2023-03-27T04:52:04.685Z,23.47
2023-03-27T04:53:05.129Z,23.47
2023-03-27T04:54:04.922Z,23.49
2023-03-27T04:55:04.758Z,23.48
2023-03-27T04:56:04.714Z,23.48
2023-03-27T04:57:04.799Z,23.47
2023-03-27T04:58:04.681Z,23.42
2023-03-27T04:59:04.733Z,23.42
2023-03-27T05:00:04.594Z,23.44
2023-03-27T05:01:04.609Z,23.47
2023-03-27T05:02:04.609Z,23.48
2023-03-27T05:03:04.714Z,23.51
2023-03-27T05:04:04.613Z,23.55
2023-03-27T05:05:04.655Z,23.58
2023-03-27T05:06:04.523Z,23.58
2023-03-27T05:07:04.524Z,23.56
2023-03-27T05:08:04.507Z,23.56
2023-03-27T05:09:04.537Z,23.55
2023-03-27T05:10:04.554Z,23.58
2023-03-27T05:11:05.322Z,23.56
2023-03-27T05:12:04.465Z,23.56
2023-03-27T05:13:04.478Z,23.55
2023-03-27T05:14:04.464Z,23.55
2023-03-27T05:15:04.444Z,23.55
2023-03-27T05:16:04.450Z,23.56
2023-03-27T05:17:04.479Z,23.58
2023-03-27T05:18:04.451Z,23.58
2023-03-27T05:19:04.527Z,23.62
2023-03-27T05:20:04.414Z,23.59
2023-03-27T05:21:04.375Z,23.56
2023-03-27T05:22:04.384Z,23.54
2023-03-27T05:23:04.448Z,23.51
2023-03-27T05:24:04.489Z,23.47
2023-03-27T05:25:04.390Z,23.42
2023-03-27T05:26:04.299Z,23.39
2023-03-27T05:27:04.307Z,23.36
2023-03-27T05:28:04.310Z,23.36
2023-03-27T05:29:05.241Z,23.39
2023-03-27T05:30:04.290Z,23.44
2023-03-27T05:31:04.361Z,23.47
2023-03-27T05:32:04.241Z,23.48
2023-03-27T05:33:04.333Z,23.48
2023-03-27T05:34:04.259Z,23.42
2023-03-27T05:35:04.253Z,23.37
2023-03-27T05:36:04.246Z,23.34
2023-03-27T05:37:04.220Z,23.34
2023-03-27T05:38:04.224Z,23.37
2023-03-27T05:39:04.202Z,23.39
2023-03-27T05:40:04.244Z,23.42
2023-03-27T05:41:04.205Z,23.42
2023-03-27T05:42:04.197Z,23.44
2023-03-27T05:43:04.156Z,23.45
2023-03-27T05:44:04.114Z,23.45
2023-03-27T05:45:04.172Z,23.48
2023-03-27T05:46:04.758Z,23.49
2023-03-27T05:47:04.132Z,23.42
2023-03-27T05:48:04.360Z,23.42
2023-03-27T05:49:04.188Z,23.42
2023-03-27T05:50:04.106Z,23.39
2023-03-27T05:51:04.099Z,23.40
2023-03-27T05:52:04.103Z,23.42
2023-03-27T05:53:04.388Z,23.44
2023-03-27T05:54:04.123Z,23.44
2023-03-27T05:55:04.037Z,23.40
2023-03-27T05:56:04.052Z,23.39
2023-03-27T05:57:04.089Z,23.36
2023-03-27T05:58:04.112Z,23.37
2023-03-27T05:59:03.958Z,23.37
2023-03-27T06:00:04.019Z,23.39
2023-03-27T06:01:03.969Z,23.40
2023-03-27T06:02:03.963Z,23.44
2023-03-27T06:03:04.004Z,23.42
2023-03-27T06:04:04.052Z,23.40
2023-03-27T06:05:03.904Z,23.39
2023-03-27T06:06:04.341Z,23.36
2023-03-27T06:07:03.901Z,23.37
2023-03-27T06:08:03.868Z,23.40
2023-03-27T06:09:03.989Z,23.40
2023-03-27T06:10:03.961Z,23.37
2023-03-27T06:11:03.864Z,23.39
2023-03-27T06:12:03.947Z,23.39
2023-03-27T06:13:03.890Z,23.37
2023-03-27T06:14:03.850Z,23.36
2023-03-27T06:15:03.824Z,23.33
2023-03-27T06:16:03.875Z,23.29
2023-03-27T06:17:03.783Z,23.33
2023-03-27T06:18:03.881Z,23.36
2023-03-27T06:19:03.791Z,23.37
2023-03-27T06:20:03.810Z,23.39
2023-03-27T06:21:03.802Z,23.42
2023-03-27T06:22:03.718Z,23.37
2023-03-27T06:23:03.904Z,23.36
2023-03-27T06:24:03.802Z,23.34
2023-03-27T06:25:03.728Z,23.33
2023-03-27T06:26:03.724Z,23.34
2023-03-27T06:27:03.748Z,23.36
2023-03-27T06:28:03.673Z,23.37
2023-03-27T06:29:08.003Z,23.40
2023-03-27T06:30:03.688Z,23.42
2023-03-27T06:31:03.664Z,23.44
2023-03-27T06:32:03.651Z,23.44
2023-03-27T06:33:03.692Z,23.45
2023-03-27T06:34:03.616Z,23.48
2023-03-27T06:35:03.592Z,23.51
2023-03-27T06:36:03.762Z,23.51
2023-03-27T06:37:03.618Z,23.51
2023-03-27T06:38:03.628Z,23.49
2023-03-27T06:39:03.544Z,23.49
2023-03-27T06:40:03.566Z,23.51
2023-03-27T06:41:03.557Z,23.51
2023-03-27T06:42:03.720Z,23.49
2023-03-27T06:43:03.523Z,23.48
2023-03-27T06:44:03.497Z,23.47
2023-03-27T06:45:03.467Z,23.42
2023-03-27T06:46:03.481Z,23.40
2023-03-27T06:47:03.490Z,23.40
2023-03-27T06:48:17.685Z,23.42
2023-03-27T06:49:03.506Z,23.44
2023-03-27T06:50:03.399Z,23.45
2023-03-27T06:51:03.550Z,23.47
2023-03-27T06:52:03.407Z,23.47
2023-03-27T06:53:05.863Z,23.47
2023-03-27T06:54:03.412Z,23.40
2023-03-27T06:55:03.418Z,23.34
2023-03-27T06:56:03.402Z,23.34
2023-03-27T06:57:03.370Z,23.34
2023-03-27T06:58:03.348Z,23.33
2023-03-27T06:59:03.323Z,23.32
2023-03-27T07:00:03.763Z,23.28
2023-03-27T07:01:03.383Z,23.25
2023-03-27T07:02:03.331Z,23.21
2023-03-27T07:03:03.345Z,23.20
2023-03-27T07:04:03.299Z,23.17
2023-03-27T07:05:07.439Z,23.18
2023-03-27T07:06:03.830Z,23.20
2023-03-27T07:07:03.321Z,23.20
2023-03-27T07:08:11.380Z,23.18
2023-03-27T07:09:03.230Z,23.18
2023-03-27T07:10:03.237Z,23.20
2023-03-27T07:12:03.829Z,23.28
2023-03-27T07:13:03.341Z,23.29
2023-03-27T07:14:03.162Z,23.25
2023-03-27T07:15:03.268Z,23.21
2023-03-27T07:16:03.188Z,23.18
2023-03-27T07:17:03.262Z,23.14
2023-03-27T07:18:03.258Z,23.14
2023-03-27T07:19:03.262Z,23.13
2023-03-27T07:20:03.195Z,23.13
2023-03-27T07:21:03.135Z,23.11
2023-03-27T07:22:03.181Z,23.11
2023-03-27T07:23:03.113Z,23.07
2023-03-27T07:24:03.191Z,23.06
2023-03-27T07:25:03.141Z,23.04
2023-03-27T07:26:03.295Z,23.07
2023-03-27T07:27:03.104Z,23.07
2023-03-27T07:28:05.615Z,23.08
2023-03-27T07:29:03.066Z,23.06
2023-03-27T07:30:03.060Z,23.02
2023-03-27T07:31:03.946Z,23.02
2023-03-27T07:32:07.875Z,23.01
2023-03-27T07:33:03.163Z,23.02
2023-03-27T07:34:03.116Z,22.96
2023-03-27T07:35:02.993Z,22.96
2023-03-27T07:36:02.994Z,22.96
2023-03-27T07:37:03.091Z,22.95
2023-03-27T07:38:03.027Z,22.93
2023-03-27T07:39:02.938Z,22.92
2023-03-27T07:40:02.928Z,22.93
2023-03-27T07:41:03.824Z,22.89
2023-03-27T07:42:02.916Z,22.88
2023-03-27T07:43:02.882Z,22.84
2023-03-27T07:44:02.897Z,22.84
2023-03-27T07:45:04.420Z,22.84
2023-03-27T07:46:02.927Z,22.86
2023-03-27T07:47:02.940Z,22.84
2023-03-27T07:48:02.914Z,22.84
2023-03-27T07:49:02.852Z,22.83
2023-03-27T07:50:02.827Z,22.83
2023-03-27T07:51:13.467Z,22.84
2023-03-27T07:52:02.866Z,22.86
2023-03-27T07:53:02.910Z,22.84
2023-03-27T07:54:02.891Z,22.83
2023-03-27T07:55:02.853Z,22.83
2023-03-27T07:56:02.842Z,22.86
2023-03-27T07:57:02.890Z,22.88
2023-03-27T07:58:03.652Z,22.91
2023-03-27T07:59:02.814Z,22.93
2023-03-27T08:00:02.783Z,22.96
2023-03-27T08:01:02.912Z,22.98
2023-03-27T08:02:02.794Z,22.98
2023-03-27T08:03:02.832Z,22.98
2023-03-27T08:04:02.851Z,22.98
2023-03-27T08:05:03.015Z,22.98
2023-03-27T08:06:02.693Z,22.98
2023-03-27T08:07:02.700Z,22.99
2023-03-27T08:08:02.801Z,22.98
2023-03-27T08:09:03.029Z,23.01
2023-03-27T08:10:02.711Z,23.04
2023-03-27T08:11:02.648Z,23.06
2023-03-27T08:12:02.732Z,23.10
2023-03-27T08:13:02.730Z,23.11
2023-03-27T08:14:02.666Z,23.14
2023-03-27T08:15:02.598Z,23.14
2023-03-27T08:16:02.902Z,23.16
2023-03-27T08:17:12.736Z,23.13
2023-03-27T08:18:02.664Z,23.10
2023-03-27T08:19:02.675Z,23.06
2023-03-27T08:20:02.607Z,23.04
2023-03-27T08:21:02.639Z,23.02
2023-03-27T08:22:02.616Z,23.02
2023-03-27T08:23:02.626Z,22.99
2023-03-27T08:24:02.557Z,22.96
2023-03-27T08:25:02.634Z,22.93
2023-03-27T08:26:02.543Z,22.92
2023-03-27T08:27:02.520Z,22.92
2023-03-27T08:28:02.528Z,22.88
2023-03-27T08:29:02.528Z,22.86
2023-03-27T08:30:02.581Z,22.83
2023-03-27T08:31:03.286Z,22.81
2023-03-27T08:32:02.480Z,22.76
2023-03-27T08:33:02.544Z,22.76
2023-03-27T08:34:02.487Z,22.78
2023-03-27T08:35:03.250Z,22.78
2023-03-27T08:36:02.852Z,22.77
2023-03-27T08:37:03.333Z,22.74
2023-03-27T08:38:02.417Z,22.71
2023-03-27T08:39:02.356Z,22.68
2023-03-27T08:40:02.365Z,22.63
2023-03-27T08:41:02.436Z,22.61
2023-03-27T08:42:02.369Z,22.61
2023-03-27T08:43:02.284Z,22.62
2023-03-27T08:44:04.036Z,22.63
2023-03-27T08:45:02.345Z,22.62
2023-03-27T08:46:02.334Z,22.61
2023-03-27T08:47:02.283Z,22.62
2023-03-27T08:48:02.423Z,22.67
2023-03-27T08:49:02.220Z,22.65
2023-03-27T08:50:02.296Z,22.68
2023-03-27T08:51:02.227Z,22.68
2023-03-27T08:52:02.264Z,22.67
2023-03-27T08:53:02.281Z,22.68
2023-03-27T08:54:02.245Z,22.63
2023-03-27T08:55:02.300Z,22.59
2023-03-27T08:56:02.167Z,22.58
2023-03-27T08:57:02.293Z,22.58
2023-03-27T08:58:02.186Z,22.55
2023-03-27T08:59:02.181Z,22.53
2023-03-27T09:00:02.825Z,22.55
2023-03-27T09:01:02.163Z,22.55
2023-03-27T09:02:02.123Z,22.55
2023-03-27T09:03:02.289Z,22.53
2023-03-27T09:04:02.147Z,22.53
2023-03-27T09:05:02.117Z,22.53
2023-03-27T09:06:02.211Z,22.52
2023-03-27T09:07:01.997Z,22.52
2023-03-27T09:08:02.043Z,22.49
2023-03-27T09:09:02.043Z,22.51
2023-03-27T09:10:02.107Z,22.47
2023-03-27T09:11:01.959Z,22.47
2023-03-27T09:12:01.972Z,22.47
2023-03-27T09:13:01.971Z,22.49
2023-03-27T09:14:02.967Z,22.52
2023-03-27T09:15:01.999Z,22.53
2023-03-27T09:16:02.065Z,22.55
2023-03-27T09:17:01.911Z,22.55
2023-03-27T09:18:02.049Z,22.52
2023-03-27T09:19:01.911Z,22.53
2023-03-27T09:20:01.946Z,22.52
2023-03-27T09:21:01.886Z,22.51
2023-03-27T09:22:01.834Z,22.49
2023-03-27T09:23:01.841Z,22.46
2023-03-27T09:24:01.870Z,22.44
2023-03-27T09:25:01.853Z,22.43
2023-03-27T09:26:01.867Z,22.40
2023-03-27T09:27:07.217Z,22.37
2023-03-27T09:28:01.883Z,22.36
2023-03-27T09:29:01.843Z,22.34
2023-03-27T09:30:05.816Z,22.34
2023-03-27T09:31:01.776Z,22.33
2023-03-27T09:32:01.702Z,22.31
2023-03-27T09:33:01.871Z,22.33
2023-03-27T09:34:01.732Z,22.33
2023-03-27T09:35:01.728Z,22.33
2023-03-27T09:36:01.783Z,22.33
2023-03-27T09:37:01.695Z,22.33
2023-03-27T09:38:01.682Z,22.34
2023-03-27T09:39:01.652Z,22.36
2023-03-27T09:40:01.704Z,22.36
2023-03-27T09:41:01.701Z,22.34
2023-03-27T09:42:07.473Z,22.28
2023-03-27T09:43:01.672Z,22.25
2023-03-27T09:44:01.577Z,22.25
2023-03-27T09:45:01.625Z,22.26
2023-03-27T09:46:01.635Z,22.28
2023-03-27T09:47:01.670Z,22.28
2023-03-27T09:48:01.696Z,22.28
2023-03-27T09:49:01.510Z,22.25
2023-03-27T09:50:01.554Z,22.25
2023-03-27T09:51:01.539Z,22.22
2023-03-27T09:52:01.540Z,22.18
2023-03-27T09:53:01.476Z,22.15
2023-03-27T09:54:01.544Z,22.14
2023-03-27T09:55:01.522Z,22.12
2023-03-27T09:56:03.009Z,22.14
2023-03-27T09:57:01.509Z,22.14
2023-03-27T09:58:01.517Z,22.15
2023-03-27T09:59:01.497Z,22.19
2023-03-27T10:00:01.586Z,22.21
2023-03-27T10:01:01.553Z,22.23
2023-03-27T10:02:01.506Z,22.26
2023-03-27T10:03:01.566Z,22.26
2023-03-27T10:04:01.482Z,22.31
2023-03-27T10:05:01.361Z,22.31
2023-03-27T10:06:01.482Z,22.31
2023-03-27T10:07:01.323Z,22.30
2023-03-27T10:08:01.339Z,22.30
2023-03-27T10:09:01.338Z,22.31
2023-03-27T10:10:01.319Z,22.31
2023-03-27T10:11:01.356Z,22.30
2023-03-27T10:12:01.920Z,22.30
2023-03-27T10:13:01.339Z,22.31
2023-03-27T10:14:01.352Z,22.36
2023-03-27T10:15:01.495Z,22.37
2023-03-27T10:16:01.263Z,22.38
2023-03-27T10:17:01.321Z,22.38
2023-03-27T10:18:01.397Z,22.38
2023-03-27T10:19:01.275Z,22.40
2023-03-27T10:20:01.296Z,22.38
2023-03-27T10:21:01.295Z,22.36
2023-03-27T10:22:01.256Z,22.36
2023-03-27T10:23:01.335Z,22.36
2023-03-27T10:24:01.285Z,22.34
2023-03-27T10:25:01.171Z,22.36
2023-03-27T10:26:01.311Z,22.36
2023-03-27T10:27:01.206Z,22.38
2023-03-27T10:28:01.187Z,22.37
2023-03-27T10:29:01.194Z,22.37
2023-03-27T10:30:01.405Z,22.38
2023-03-27T10:31:01.123Z,22.38
2023-03-27T10:32:01.148Z,22.37
2023-03-27T10:33:01.148Z,22.37
2023-03-27T10:34:01.225Z,22.37
2023-03-27T10:35:01.182Z,22.38
2023-03-27T10:36:01.282Z,22.40
2023-03-27T10:37:01.091Z,22.40
2023-03-27T10:38:01.053Z,22.43
2023-03-27T10:39:01.063Z,22.43
2023-03-27T10:40:01.119Z,22.46
2023-03-27T10:41:01.083Z,22.51
2023-03-27T10:42:01.023Z,22.55
2023-03-27T10:43:00.980Z,22.63
2023-03-27T10:44:01.087Z,22.77
2023-03-27T10:45:01.827Z,22.86
2023-03-27T10:46:01.167Z,22.93
2023-03-27T10:47:01.020Z,22.96
2023-03-27T10:48:01.043Z,22.98
2023-03-27T10:49:00.993Z,22.96
2023-03-27T10:50:00.929Z,23.02
2023-03-27T10:51:02.173Z,22.96
2023-03-27T10:52:00.942Z,22.98
2023-03-27T10:53:01.009Z,22.99
2023-03-27T10:54:00.983Z,22.99
2023-03-27T10:55:00.907Z,22.96
2023-03-27T10:56:00.873Z,22.95
2023-03-27T10:57:00.980Z,22.99
2023-03-27T10:58:00.882Z,23.01
2023-03-27T10:59:00.874Z,23.02
2023-03-27T11:00:00.835Z,23.06
2023-03-27T11:01:00.859Z,23.10
2023-03-27T11:02:01.344Z,23.13
2023-03-27T11:03:00.870Z,23.16
2023-03-27T11:04:00.805Z,23.14
2023-03-27T11:05:00.729Z,23.17
2023-03-27T11:06:00.733Z,23.18
2023-03-27T11:07:00.737Z,23.23
2023-03-27T11:08:00.778Z,23.23
2023-03-27T11:09:00.784Z,23.33
2023-03-27T11:10:00.720Z,23.42
2023-03-27T11:11:00.666Z,23.45
2023-03-27T11:12:00.678Z,23.47
2023-03-27T11:13:00.728Z,23.42
2023-03-27T11:14:00.667Z,23.40
2023-03-27T11:15:00.732Z,23.40
2023-03-27T11:16:00.598Z,23.42
2023-03-27T11:17:00.625Z,23.45
2023-03-27T11:18:00.640Z,23.47
2023-03-27T11:19:00.612Z,23.48
2023-03-27T11:20:00.609Z,23.45
2023-03-27T11:21:00.669Z,23.45
2023-03-27T11:22:00.576Z,23.42
2023-03-27T11:23:00.607Z,23.39
2023-03-27T11:24:00.696Z,23.34
2023-03-27T11:25:00.552Z,23.29
2023-03-27T11:26:00.603Z,23.32
2023-03-27T11:27:00.552Z,23.29
2023-03-27T11:28:00.563Z,23.37
2023-03-27T11:29:00.518Z,23.39
2023-03-27T11:30:00.467Z,23.36
2023-03-27T11:31:00.816Z,23.34
2023-03-27T11:32:01.457Z,23.40
2023-03-27T11:33:00.571Z,23.44
2023-03-27T11:34:01.102Z,23.52
2023-03-27T11:35:02.673Z,23.56
2023-03-27T11:36:00.568Z,23.56
2023-03-27T11:37:00.834Z,23.52
2023-03-27T11:38:01.856Z,23.45
2023-03-27T11:39:01.148Z,23.42
2023-03-27T11:40:03.821Z,23.45
2023-03-27T11:41:00.829Z,23.51
2023-03-27T11:42:00.322Z,23.52
2023-03-27T11:43:00.415Z,23.51
2023-03-27T11:44:00.407Z,23.49
2023-03-27T11:45:00.587Z,23.48
2023-03-27T11:46:00.418Z,23.52
2023-03-27T11:47:00.273Z,23.66
2023-03-27T11:48:00.330Z,23.77
2023-03-27T11:49:00.401Z,23.84
2023-03-27T11:50:00.378Z,23.91
2023-03-27T11:51:00.416Z,23.92
2023-03-27T11:52:00.223Z,23.91
2023-03-27T11:53:00.297Z,23.88
2023-03-27T11:54:00.300Z,23.86
2023-03-27T11:55:00.429Z,23.84
2023-03-27T11:56:01.578Z,23.79
2023-03-27T11:57:00.374Z,23.73
2023-03-27T11:58:00.234Z,23.70
2023-03-27T11:59:00.193Z,23.71
2023-03-27T12:00:00.239Z,23.76
2023-03-27T12:01:00.249Z,23.79
2023-03-27T12:02:00.585Z,23.88
2023-03-27T12:03:00.413Z,23.92
2023-03-27T12:04:00.304Z,23.95
2023-03-27T12:05:00.174Z,23.92
2023-03-27T12:06:00.451Z,23.94
2023-03-27T12:07:04.676Z,23.91
2023-03-27T12:08:00.152Z,23.89
2023-03-27T12:09:00.073Z,23.89
2023-03-27T12:10:00.154Z,23.86
2023-03-27T12:11:00.098Z,23.85
2023-03-27T12:12:00.354Z,23.81
2023-03-27T12:13:00.061Z,23.81
2023-03-27T12:14:02.138Z,23.79
2023-03-27T12:15:00.114Z,23.81
2023-03-27T12:16:00.152Z,23.82
2023-03-27T12:17:00.490Z,23.82
2023-03-27T12:18:00.095Z,23.86
2023-03-27T12:19:05.930Z,23.91
2023-03-27T12:20:00.237Z,23.96
2023-03-27T12:21:00.368Z,23.99
2023-03-27T12:22:00.115Z,24.06
2023-03-27T12:22:59.974Z,24.07
2023-03-27T12:23:59.956Z,24.07
2023-03-27T12:25:00.354Z,24.09
2023-03-27T12:26:00.379Z,24.11
2023-03-27T12:26:59.875Z,24.10
2023-03-27T12:27:59.892Z,24.11
2023-03-27T12:28:59.900Z,24.13
2023-03-27T12:29:59.892Z,24.13
2023-03-27T12:31:00.025Z,24.18
2023-03-27T12:31:59.870Z,24.14
2023-03-27T12:33:00.430Z,24.06
2023-03-27T12:33:59.816Z,23.96
2023-03-27T12:34:59.794Z,23.95
2023-03-27T12:35:59.818Z,24.04
2023-03-27T12:36:59.792Z,24.07
2023-03-27T12:37:59.787Z,24.14
2023-03-27T12:38:59.746Z,24.19
2023-03-27T12:39:59.758Z,24.21
2023-03-27T12:40:59.759Z,24.22
2023-03-27T12:41:59.780Z,24.22
2023-03-27T12:42:59.661Z,24.21
2023-03-27T12:43:59.674Z,24.13
2023-03-27T12:45:00.055Z,24.13
2023-03-27T12:45:59.635Z,24.13
2023-03-27T12:46:59.671Z,24.11
2023-03-27T12:47:59.685Z,24.10
2023-03-27T12:48:59.671Z,24.09
2023-03-27T12:49:59.617Z,24.10
2023-03-27T12:50:59.982Z,24.07
2023-03-27T12:51:59.582Z,24.10
2023-03-27T12:52:59.703Z,24.10